Time;durP1;ratioP1;P1;durP2;ratioP2;P2;SDS_P1;SDS_P2;PMS_P1;PMS_P2;Temp;Humidity;BMP_temperature;BMP_pressure;BME280_temperature;BME280_humidity;BME280_pressure;Samples;Min_cycle;Max_cycle;Signal;HPM_P1;HPM_P2
2023/01/19 00:01:35;;;;;;;23.77;9.70;;;;;;;13.29;49.85;91667.44;5091250;28;20212;-91
2023/01/19 00:04:00;;;;;;;23.43;9.20;;;;;;;13.31;50.03;91681.75;5088981;28;20198;-88
2023/01/19 00:06:26;;;;;;;15.87;9.20;;;;;;;13.34;50.34;91678.47;5091416;28;20189;-87
2023/01/19 00:08:51;;;;;;;25.37;10.30;;;;;;;13.41;49.83;91670.91;5089683;28;20189;-92
2023/01/19 00:11:17;;;;;;;25.73;9.90;;;;;;;13.42;50.93;91688.16;5089287;28;20193;-90
2023/01/19 00:13:49;;;;;;;14.50;8.90;;;;;;;13.33;50.00;91653.38;5090125;28;20184;-90
2023/01/19 00:16:18;;;;;;;20.03;10.33;;;;;;;13.50;49.77;91683.94;5090449;28;20234;-85
2023/01/19 00:18:46;;;;;;;24.47;9.77;;;;;;;13.32;49.94;91682.53;5089689;28;20220;-89
2023/01/19 00:21:15;;;;;;;10.70;8.63;;;;;;;13.47;49.26;91685.34;5088568;28;20216;-88
2023/01/19 00:23:42;;;;;;;20.27;10.13;;;;;;;13.53;49.37;91704.28;5089999;28;20319;-88
2023/01/19 00:26:09;;;;;;;29.33;8.80;;;;;;;13.06;50.56;91651.19;5090627;28;20213;-89
2023/01/19 00:28:34;;;;;;;13.37;8.43;;;;;;;13.52;49.70;91718.50;5122931;27;20180;-89
2023/01/19 00:30:59;;;;;;;20.40;9.30;;;;;;;13.46;50.03;91704.81;5089370;28;20222;-90
2023/01/19 00:33:25;;;;;;;27.67;10.10;;;;;;;13.42;49.78;91701.28;5090448;28;20219;-89
2023/01/19 00:35:53;;;;;;;24.87;9.67;;;;;;;13.50;49.19;91692.59;5091226;28;20302;-89
2023/01/19 00:38:19;;;;;;;20.03;9.27;;;;;;;13.58;49.63;91701.47;5089774;28;20216;-90
2023/01/19 00:40:46;;;;;;;15.73;8.43;;;;;;;13.48;49.77;91739.31;5089762;28;20222;-89
2023/01/19 00:43:11;;;;;;;18.83;9.40;;;;;;;13.51;49.08;91712.47;5088548;28;20187;-87
2023/01/19 00:45:36;;;;;;;27.17;9.07;;;;;;;13.34;49.57;91717.06;5089344;28;20208;-85
2023/01/19 00:48:02;;;;;;;23.20;9.33;;;;;;;13.38;48.97;91697.75;5089976;28;20235;-83
2023/01/19 00:50:29;;;;;;;23.80;9.53;;;;;;;13.39;49.45;91743.84;5088844;28;20220;-88
2023/01/19 00:52:56;;;;;;;23.30;10.10;;;;;;;13.31;49.74;91707.97;5089873;28;20272;-88
2023/01/19 00:55:22;;;;;;;23.67;9.60;;;;;;;13.46;48.65;91696.94;5088982;28;20220;-92
2023/01/19 00:57:48;;;;;;;17.93;10.10;;;;;;;13.47;48.91;91706.34;5090540;28;20315;-88
2023/01/19 01:00:16;;;;;;;23.70;9.27;;;;;;;13.42;49.19;91703.88;5090069;28;20219;-89
2023/01/19 01:02:42;;;;;;;22.70;9.40;;;;;;;13.30;49.71;91690.69;5089969;28;20188;-92
2023/01/19 01:05:08;;;;;;;25.27;8.43;;;;;;;13.39;49.70;91677.53;5089007;28;20231;-87
2023/01/19 01:07:43;;;;;;;15.57;9.30;;;;;;;13.43;49.26;91673.94;5088723;28;20193;-85
2023/01/19 01:10:27;;;;;;;12.70;9.23;;;;;;;13.36;49.75;91671.09;5090378;28;20220;-91
2023/01/19 01:12:52;;;;;;;17.13;9.97;;;;;;;13.49;48.75;91693.69;5105158;28;20188;-90
2023/01/19 01:15:18;;;;;;;28.07;10.30;;;;;;;13.39;48.96;91677.53;5090511;28;20235;-91
2023/01/19 01:17:47;;;;;;;17.50;9.83;;;;;;;13.35;49.05;91676.66;5093122;28;20208;-91
2023/01/19 01:20:15;;;;;;;19.37;9.60;;;;;;;13.26;48.85;91644.47;5093777;28;20784;-86
2023/01/19 01:22:44;;;;;;;21.67;10.23;;;;;;;13.31;48.67;91663.41;5091920;28;20196;-92
2023/01/19 01:25:21;;;;;;;16.53;9.60;;;;;;;13.30;49.77;91680.22;5092384;28;20280;-92
2023/01/19 01:27:46;;;;;;;19.83;11.30;;;;;;;13.38;48.90;91686.50;5093583;28;20267;-88
2023/01/19 01:30:14;;;;;;;13.30;9.97;;;;;;;13.36;48.52;91681.56;5093024;28;20212;-89
2023/01/19 01:32:39;;;;;;;12.10;9.03;;;;;;;13.29;48.88;91667.44;5093432;28;20181;-91
2023/01/19 01:35:07;;;;;;;13.73;9.57;;;;;;;13.34;48.48;91677.75;5092542;28;20224;-84
2023/01/19 01:37:34;;;;;;;16.93;9.40;;;;;;;13.34;49.11;91690.84;5127568;27;20215;-89
2023/01/19 01:39:59;;;;;;;20.90;10.20;;;;;;;13.39;48.30;91703.75;5092961;28;20225;-90
2023/01/19 01:42:27;;;;;;;24.20;9.00;;;;;;;13.42;48.59;91709.13;5095875;28;20235;-90
2023/01/19 01:44:59;;;;;;;20.97;9.73;;;;;;;13.37;47.96;91711.94;5094112;28;20223;-90
2023/01/19 01:47:44;;;;;;;18.67;8.87;;;;;;;13.31;48.13;91689.59;5097099;28;20189;-92
2023/01/19 01:50:26;;;;;;;11.70;9.00;;;;;;;13.31;48.07;91697.47;5092503;28;20236;-88
2023/01/19 01:52:57;;;;;;;23.40;8.77;;;;;;;13.22;48.07;91677.63;5052864;28;20197;-92
2023/01/19 01:55:27;;;;;;;12.10;8.23;;;;;;;13.39;48.32;91701.91;5052430;28;20218;-93
2023/01/19 01:57:58;;;;;;;13.23;8.63;;;;;;;13.34;47.49;91696.84;5053122;28;20219;-94
2023/01/19 02:00:24;;;;;;;11.80;9.03;;;;;;;13.43;47.79;91733.50;5052664;28;20245;-88
2023/01/19 02:02:50;;;;;;;12.07;8.53;;;;;;;13.52;46.87;91708.78;5052300;28;20194;-88
2023/01/19 02:05:33;;;;;;;17.37;8.80;;;;;;;13.49;46.76;91714.66;5052455;28;20230;-86
2023/01/19 02:13:34;;;;;;;22.50;9.90;;;;;;;13.39;47.25;91716.84;5052027;28;20204;-88
2023/01/19 02:16:05;;;;;;;15.07;9.07;;;;;;;13.40;47.26;91707.94;5051726;28;20232;-86
2023/01/19 02:18:31;;;;;;;21.27;8.17;;;;;;;13.34;47.37;91709.94;5052778;28;20205;-89
2023/01/19 02:21:18;;;;;;;14.37;8.80;;;;;;;13.34;47.99;91709.19;5051188;28;20294;-89
2023/01/19 02:23:48;;;;;;;18.57;9.00;;;;;;;13.31;47.67;91676.50;5051373;28;20198;-90
2023/01/19 02:26:17;;;;;;;19.77;9.80;;;;;;;13.25;47.82;91688.25;5051982;28;20269;-89
2023/01/19 02:28:47;;;;;;;16.50;8.43;;;;;;;13.31;47.24;91660.03;5051128;28;20194;-87
2023/01/19 02:31:14;;;;;;;14.07;8.00;;;;;;;13.38;47.18;91682.03;5052260;28;20233;-89
2023/01/19 02:33:39;;;;;;;10.23;7.87;;;;;;;13.42;46.83;91697.88;5051916;28;20186;-84
2023/01/19 02:36:08;;;;;;;8.67;7.40;;;;;;;13.33;47.23;91679.59;5052139;28;20229;-87
2023/01/19 02:38:37;;;;;;;15.13;8.50;;;;;;;13.40;47.20;91687.69;5052091;28;20257;-90
2023/01/19 02:41:05;;;;;;;21.03;9.37;;;;;;;13.45;46.80;91687.53;5050421;28;20222;-89
2023/01/19 02:43:32;;;;;;;21.83;8.87;;;;;;;13.36;47.69;91667.69;5052330;28;20222;-83
2023/01/19 02:45:57;;;;;;;20.03;8.07;;;;;;;13.39;47.25;91678.31;5052886;28;20212;-86
2023/01/19 02:48:23;;;;;;;18.03;8.27;;;;;;;13.31;47.56;91691.47;5051949;28;20209;-87
2023/01/19 02:50:52;;;;;;;12.30;8.23;;;;;;;13.33;47.40;91699.78;5060323;28;20263;-90
2023/01/19 02:53:36;;;;;;;20.57;9.53;;;;;;;13.32;47.18;91714.75;5091165;28;20173;-90
2023/01/19 02:56:10;;;;;;;17.47;8.83;;;;;;;13.32;47.89;91701.66;5091296;28;20221;-87
2023/01/19 02:58:46;;;;;;;12.53;8.80;;;;;;;13.23;47.48;91693.03;5124710;28;20287;-85
2023/01/19 03:01:31;;;;;;;12.30;8.73;;;;;;;13.31;46.86;91681.75;5090628;28;20239;-87
2023/01/19 03:03:59;;;;;;;17.70;9.30;;;;;;;13.35;46.55;91716.75;5090484;28;20291;-90
2023/01/19 03:06:54;;;;;;;14.43;9.03;;;;;;;13.19;46.90;91689.53;5092307;28;20199;-89
2023/01/19 03:09:45;;;;;;;14.00;8.73;;;;;;;13.22;46.89;91688.88;5049929;28;20232;-89
2023/01/19 03:12:19;;;;;;;11.10;9.70;;;;;;;13.18;46.58;91708.97;5091338;28;20195;-88
2023/01/19 03:14:46;;;;;;;11.50;8.07;;;;;;;13.26;47.01;91710.00;5091834;28;20245;-89
2023/01/19 03:17:15;;;;;;;14.27;9.17;;;;;;;13.14;46.86;91697.56;5125202;27;20184;-88
2023/01/19 03:19:44;;;;;;;12.13;9.80;;;;;;;13.22;47.51;91709.06;5092561;28;20208;-93
2023/01/19 03:22:14;;;;;;;12.70;8.57;;;;;;;13.16;46.96;91699.88;5091638;28;20184;-87
2023/01/19 03:24:42;;;;;;;16.43;9.13;;;;;;;13.11;48.15;91703.44;5091156;28;20230;-90
2023/01/19 03:27:13;;;;;;;17.83;9.17;;;;;;;13.11;47.23;91692.94;5090724;28;20200;-89
2023/01/19 03:29:45;;;;;;;10.43;8.40;;;;;;;13.15;47.06;91704.34;5092556;28;20274;-87
2023/01/19 03:32:16;;;;;;;20.57;10.57;;;;;;;13.19;47.21;91715.72;5089721;28;20200;-90
2023/01/19 03:34:44;;;;;;;17.63;8.43;;;;;;;13.06;47.87;91700.97;5090946;28;20228;-92
2023/01/19 03:37:10;;;;;;;21.50;9.90;;;;;;;12.89;47.29;91672.22;5091776;28;20169;-90
2023/01/19 03:39:36;;;;;;;22.23;10.57;;;;;;;13.15;47.41;91725.31;5090370;28;20224;-89
2023/01/19 03:42:06;;;;;;;16.77;8.63;;;;;;;13.20;47.18;91714.63;5091971;28;20182;-91
2023/01/19 03:44:35;;;;;;;24.27;10.27;;;;;;;13.09;48.00;91713.44;5089212;28;20254;-90
2023/01/19 03:47:01;;;;;;;17.63;9.93;;;;;;;13.08;47.18;91693.59;5092423;28;20698;-89
2023/01/19 03:49:30;;;;;;;23.00;10.00;;;;;;;13.08;46.39;91693.59;5092666;28;20231;-90
2023/01/19 03:51:57;;;;;;;16.70;10.30;;;;;;;13.20;46.68;91711.28;5089975;28;20386;-82
2023/01/19 03:54:23;;;;;;;17.67;9.13;;;;;;;13.21;46.30;91713.56;5090670;28;20240;-87
2023/01/19 03:56:51;;;;;;;12.30;9.07;;;;;;;13.18;46.33;91702.94;5090530;28;20184;-89
2023/01/19 03:59:16;;;;;;;24.73;8.63;;;;;;;13.20;45.93;91706.03;5090868;28;20548;-87
2023/01/19 04:01:42;;;;;;;21.13;11.10;;;;;;;13.23;45.99;91724.50;5091367;28;20181;-91
2023/01/19 04:04:07;;;;;;;20.37;9.73;;;;;;;13.17;45.97;91717.16;5088921;28;20198;-89
2023/01/19 04:06:33;;;;;;;19.77;9.60;;;;;;;13.15;46.25;91719.31;5092076;28;20185;-91
2023/01/19 04:08:58;;;;;;;19.23;11.07;;;;;;;13.17;45.44;91717.91;5091333;28;20196;-87
2023/01/19 04:11:23;;;;;;;20.00;9.93;;;;;;;13.05;44.92;91682.97;5091038;28;20248;-88
2023/01/19 04:13:49;;;;;;;30.10;10.87;;;;;;;13.17;45.12;91712.66;5090693;28;20189;-88
2023/01/19 04:16:18;;;;;;;23.10;10.20;;;;;;;13.36;44.51;91707.00;5090754;28;20206;-88
2023/01/19 04:18:44;;;;;;;17.27;9.27;;;;;;;13.16;44.81;91715.59;5090035;28;20212;-88
2023/01/19 04:21:09;;;;;;;28.30;9.40;;;;;;;13.36;44.21;91734.00;5090441;28;20270;-90
2023/01/19 04:23:35;;;;;;;24.87;9.67;;;;;;;13.15;44.51;91717.47;5092677;28;20225;-89
2023/01/19 04:26:03;;;;;;;19.00;9.97;;;;;;;13.28;44.64;91740.03;5091198;28;20288;-90
2023/01/19 04:28:29;;;;;;;28.03;10.13;;;;;;;13.23;43.55;91736.84;5089620;28;20196;-87
2023/01/19 04:30:54;;;;;;;24.47;9.77;;;;;;;13.32;44.34;91720.00;5089730;28;20304;-90
2023/01/19 04:33:21;;;;;;;28.17;10.53;;;;;;;13.37;44.24;91753.13;5090478;28;20281;-85
2023/01/19 04:35:48;;;;;;;25.47;10.63;;;;;;;13.33;44.04;91773.94;5089058;28;20217;-84
2023/01/19 04:38:14;;;;;;;20.80;10.07;;;;;;;13.35;43.96;91735.09;5089397;28;20212;-81
2023/01/19 04:40:39;;;;;;;28.57;10.73;;;;;;;13.36;43.85;91752.34;5089163;28;20219;-81
2023/01/19 04:43:05;;;;;;;20.10;10.90;;;;;;;13.34;44.42;91772.84;5089390;28;20212;-78
2023/01/19 04:45:31;;;;;;;20.27;11.10;;;;;;;13.48;43.04;91749.81;5089078;28;20251;-73
2023/01/19 04:47:56;;;;;;;26.23;11.20;;;;;;;13.37;43.54;91764.38;5089565;28;20652;-72
2023/01/19 04:50:21;;;;;;;18.20;10.50;;;;;;;13.34;43.89;91753.75;5086690;28;20242;-73
2023/01/19 04:52:47;;;;;;;20.83;10.60;;;;;;;13.13;44.31;91731.94;5085805;28;20203;-74
2023/01/19 04:55:13;;;;;;;36.23;11.37;;;;;;;13.11;44.42;91729.63;5086729;28;20311;-76
2023/01/19 04:57:39;;;;;;;21.13;10.53;;;;;;;13.14;44.12;91738.72;5088428;28;20196;-73
2023/01/19 05:00:06;;;;;;;33.80;11.43;;;;;;;13.29;43.77;91761.78;5088153;28;20216;-74
2023/01/19 05:02:32;;;;;;;27.23;10.97;;;;;;;13.31;43.80;91754.38;5087480;28;20180;-80
2023/01/19 05:04:58;;;;;;;19.37;10.03;;;;;;;13.05;44.72;91733.50;5087512;28;20283;-79
2023/01/19 05:07:23;;;;;;;22.80;10.13;;;;;;;13.16;44.17;91760.91;5088071;28;20187;-76
2023/01/19 05:09:48;;;;;;;23.07;10.53;;;;;;;13.17;43.93;91783.41;5087221;28;20228;-75
2023/01/19 05:12:14;;;;;;;22.87;10.70;;;;;;;13.12;44.46;91777.59;5088883;28;21116;-76
2023/01/19 05:14:40;;;;;;;18.07;10.13;;;;;;;13.21;44.13;91792.19;5087793;28;20224;-76
2023/01/19 05:17:05;;;;;;;21.90;10.60;;;;;;;13.19;43.61;91762.91;5088855;28;20202;-80
2023/01/19 05:19:30;;;;;;;24.17;10.40;;;;;;;13.21;44.03;91797.44;5088038;28;20220;-77
2023/01/19 05:21:56;;;;;;;23.53;9.53;;;;;;;13.20;45.47;91801.13;5088763;28;20185;-80
2023/01/19 05:24:21;;;;;;;27.73;10.23;;;;;;;13.29;43.31;91828.06;5088341;28;20220;-77
2023/01/19 05:26:47;;;;;;;23.20;10.93;;;;;;;13.34;43.03;91814.81;5089869;28;20242;-77
2023/01/19 05:29:12;;;;;;;31.77;10.67;;;;;;;13.36;43.19;91804.78;5088661;28;20243;-76
2023/01/19 05:31:38;;;;;;;34.30;10.27;;;;;;;13.40;43.08;91825.91;5089436;28;20189;-76
2023/01/19 05:34:04;;;;;;;25.60;11.07;;;;;;;13.43;42.82;91815.53;5089260;28;20188;-75
2023/01/19 05:36:29;;;;;;;26.40;10.40;;;;;;;13.41;43.33;91812.47;5088463;28;20210;-78
2023/01/19 05:38:55;;;;;;;23.87;10.90;;;;;;;13.39;43.17;91816.47;5087731;28;20236;-89
2023/01/19 05:41:20;;;;;;;27.50;10.77;;;;;;;13.36;42.57;91806.63;5089487;28;20185;-87
2023/01/19 05:43:46;;;;;;;40.20;10.13;;;;;;;13.16;43.09;91805.47;5088932;28;20192;-91
2023/01/19 05:46:11;;;;;;;21.10;9.97;;;;;;;13.21;43.26;91828.91;5088343;28;20280;-89
2023/01/19 05:48:37;;;;;;;25.47;10.80;;;;;;;13.32;43.17;91840.59;5089619;28;20192;-92
2023/01/19 05:51:03;;;;;;;27.60;9.67;;;;;;;13.28;43.54;91838.88;5088108;28;20233;-91
2023/01/19 05:53:29;;;;;;;29.37;11.07;;;;;;;13.34;42.53;91821.91;5089140;28;20208;-93
2023/01/19 05:56:07;;;;;;;26.13;10.57;;;;;;;13.30;42.92;91819.16;5088889;28;20286;-90
2023/01/19 05:58:34;;;;;;;25.37;9.80;;;;;;;13.22;43.54;91835.66;5073311;28;20212;-91
2023/01/19 06:01:04;;;;;;;24.47;10.83;;;;;;;13.09;43.48;91823.50;5090040;28;20232;-92
2023/01/19 06:03:33;;;;;;;28.93;10.60;;;;;;;13.30;42.91;91858.47;5092726;28;20180;-88
2023/01/19 06:05:59;;;;;;;30.07;11.37;;;;;;;13.34;43.10;91856.75;5091536;28;20220;-91
2023/01/19 06:08:25;;;;;;;24.43;11.47;;;;;;;13.12;44.16;91835.25;5092438;28;20173;-91
2023/01/19 06:10:50;;;;;;;27.63;12.17;;;;;;;13.12;42.74;91820.25;5094865;28;20239;-94
2023/01/19 06:13:16;;;;;;;19.00;10.10;;;;;;;13.34;44.23;91845.50;5094303;28;20248;-93
2023/01/19 06:15:43;;;;;;;24.97;10.90;;;;;;;13.45;42.24;91849.34;5092915;28;20212;-93
2023/01/19 06:18:09;;;;;;;27.53;10.30;;;;;;;13.45;42.28;91831.72;5093824;28;20212;-93
2023/01/19 06:20:35;;;;;;;23.87;9.97;;;;;;;13.50;42.75;91859.63;5092672;28;20252;-93
2023/01/19 06:23:00;;;;;;;32.80;10.47;;;;;;;13.50;42.16;91836.03;5093837;28;20185;-93
2023/01/19 06:25:26;;;;;;;17.77;10.10;;;;;;;13.59;41.73;91834.91;5092714;28;20243;-92
2023/01/19 06:27:51;;;;;;;38.80;12.00;;;;;;;13.55;42.56;91828.78;5094322;28;20212;-93
2023/01/19 06:30:17;;;;;;;24.30;10.13;;;;;;;13.72;41.36;91839.19;5092051;28;20235;-93
2023/01/19 06:32:43;;;;;;;22.20;9.73;;;;;;;13.73;41.60;91832.06;5092795;28;20185;-86
2023/01/19 06:35:08;;;;;;;24.37;10.57;;;;;;;13.61;41.97;91827.50;5094601;28;20227;-89
2023/01/19 06:37:34;;;;;;;35.40;11.93;;;;;;;13.69;41.41;91845.06;5092206;28;20184;-86
2023/01/19 06:40:00;;;;;;;20.83;11.13;;;;;;;13.69;41.18;91831.94;5090948;28;20228;-75
2023/01/19 06:42:25;;;;;;;28.53;10.70;;;;;;;13.77;41.23;91836.41;5087717;28;20185;-76
2023/01/19 06:44:50;;;;;;;32.00;10.83;;;;;;;13.82;41.57;91823.06;5083077;28;20220;-76
2023/01/19 06:47:16;;;;;;;22.07;10.43;;;;;;;13.91;40.84;91847.44;5090985;28;20195;-76
2023/01/19 06:49:42;;;;;;;33.83;12.37;;;;;;;14.02;39.88;91842.59;5088418;28;20220;-75
2023/01/19 06:52:10;;;;;;;34.23;12.17;;;;;;;13.97;40.38;91838.28;5089412;28;20232;-75
2023/01/19 06:54:35;;;;;;;28.47;10.67;;;;;;;13.86;39.90;91850.22;5088917;28;20217;-75
2023/01/19 06:57:01;;;;;;;37.67;11.77;;;;;;;14.02;40.31;91856.47;5088811;28;20203;-73
2023/01/19 06:59:26;;;;;;;29.73;11.27;;;;;;;14.09;39.43;91854.13;5087445;28;20221;-75
2023/01/19 07:01:51;;;;;;;24.97;10.20;;;;;;;14.02;39.89;91872.19;5089025;28;20231;-73
2023/01/19 07:04:17;;;;;;;24.10;10.07;;;;;;;14.08;39.38;91855.22;5089444;28;20690;-76
2023/01/19 07:06:42;;;;;;;23.60;10.83;;;;;;;14.14;39.49;91861.03;5089950;28;20198;-75
2023/01/19 07:09:10;;;;;;;20.53;10.30;;;;;;;14.15;39.22;91862.56;5088652;28;20238;-74
2023/01/19 07:11:36;;;;;;;24.63;9.67;;;;;;;14.29;38.74;91858.66;5089020;28;20173;-76
2023/01/19 07:14:02;;;;;;;28.47;10.23;;;;;;;14.30;38.83;91857.56;5085680;28;20193;-75
2023/01/19 07:16:28;;;;;;;26.83;10.93;;;;;;;14.21;39.05;91858.69;5088311;28;20195;-76
2023/01/19 07:18:53;;;;;;;29.30;11.07;;;;;;;14.36;39.03;91863.41;5088614;28;20223;-75
2023/01/19 07:21:19;;;;;;;24.00;9.43;;;;;;;14.20;40.04;91886.00;5088837;28;20219;-74
2023/01/19 07:23:47;;;;;;;33.87;10.30;;;;;;;14.29;38.71;91855.25;5088106;28;20244;-74
2023/01/19 07:26:14;;;;;;;24.93;9.30;;;;;;;14.24;38.79;91858.84;5088478;28;20236;-76
2023/01/19 07:28:40;;;;;;;31.63;9.87;;;;;;;14.38;38.77;91848.84;5089091;28;20199;-75
2023/01/19 07:31:06;;;;;;;25.87;10.67;;;;;;;14.38;39.07;91877.75;5089136;28;20225;-74
2023/01/19 07:33:31;;;;;;;27.47;10.87;;;;;;;14.35;38.38;91853.97;5089070;28;20195;-74
2023/01/19 07:35:57;;;;;;;35.77;11.10;;;;;;;14.30;38.53;91820.81;5088648;28;20235;-74
2023/01/19 07:38:22;;;;;;;27.10;9.70;;;;;;;14.40;37.72;91845.91;5088907;28;20232;-74
2023/01/19 07:40:48;;;;;;;41.97;11.17;;;;;;;14.48;38.74;91851.13;5089634;28;20280;-75
2023/01/19 07:43:14;;;;;;;26.07;10.47;;;;;;;14.58;38.08;91857.84;5088535;28;20193;-74
2023/01/19 07:45:40;;;;;;;32.60;10.37;;;;;;;14.56;37.50;91840.84;5088561;28;20227;-75
2023/01/19 07:48:05;;;;;;;33.67;10.10;;;;;;;14.57;37.91;91858.91;5088057;28;20193;-74
2023/01/19 07:50:31;;;;;;;22.83;9.83;;;;;;;14.59;37.35;91837.59;5087857;28;20227;-75
2023/01/19 07:52:57;;;;;;;20.70;11.43;;;;;;;14.63;38.31;91854.25;5089004;28;20208;-76
2023/01/19 07:55:23;;;;;;;18.97;10.40;;;;;;;14.61;37.89;91840.66;5087498;28;20213;-76
2023/01/19 07:57:50;;;;;;;23.90;10.17;;;;;;;14.77;36.44;91854.75;5088738;28;20208;-76
2023/01/19 08:00:20;;;;;;;24.40;10.00;;;;;;;14.75;36.19;91820.16;5088442;28;20216;-77
2023/01/19 08:02:50;;;;;;;29.53;10.57;;;;;;;15.07;36.58;91845.66;5086787;28;20242;-75
2023/01/19 08:05:19;;;;;;;31.57;9.67;;;;;;;14.86;37.29;91861.50;5086570;28;20229;-77
2023/01/19 08:07:46;;;;;;;27.07;10.67;;;;;;;14.89;36.41;91823.28;5089424;28;20252;-77
2023/01/19 08:10:13;;;;;;;28.10;10.83;;;;;;;14.97;37.42;91831.09;5087438;28;20224;-80
2023/01/19 08:12:39;;;;;;;28.93;11.97;;;;;;;14.96;36.25;91844.56;5087344;28;20185;-77
2023/01/19 08:15:05;;;;;;;24.93;11.13;;;;;;;14.99;36.93;91838.66;5086208;28;20239;-77
2023/01/19 08:17:30;;;;;;;24.27;9.63;;;;;;;15.04;36.83;91854.22;5087417;28;20188;-76
2023/01/19 08:19:56;;;;;;;32.20;10.93;;;;;;;15.17;37.19;91855.78;5089848;28;20223;-80
2023/01/19 08:22:21;;;;;;;28.33;10.87;;;;;;;15.00;36.72;91840.19;5087566;28;20200;-81
2023/01/19 08:24:47;;;;;;;40.63;11.77;;;;;;;15.01;37.77;91852.22;5088659;28;20631;-83
2023/01/19 08:27:12;;;;;;;20.37;9.53;;;;;;;15.06;39.35;91834.41;5088999;28;20216;-80
2023/01/19 08:29:37;;;;;;;24.23;10.50;;;;;;;15.36;37.12;91853.44;5088663;28;20314;-76
2023/01/19 08:32:03;;;;;;;33.23;12.20;;;;;;;15.23;36.21;91859.75;5087504;28;20192;-75
2023/01/19 08:34:29;;;;;;;26.53;10.40;;;;;;;15.23;35.73;91843.97;5089496;28;20242;-74
2023/01/19 08:36:55;;;;;;;24.10;11.40;;;;;;;15.19;35.79;91853.63;5103920;28;20307;-77
2023/01/19 08:39:22;;;;;;;26.37;9.30;;;;;;;15.15;36.53;91860.59;5089205;28;20250;-78
2023/01/19 08:41:49;;;;;;;19.77;10.97;;;;;;;15.24;36.10;91872.56;5088000;28;20189;-79
2023/01/19 08:44:14;;;;;;;32.33;10.50;;;;;;;15.18;35.88;91844.19;5088668;28;20232;-79
2023/01/19 08:46:40;;;;;;;30.70;11.13;;;;;;;15.24;36.59;91862.06;5088688;28;20231;-79
2023/01/19 08:49:05;;;;;;;22.67;10.03;;;;;;;15.35;36.81;91865.03;5088578;28;20200;-79
2023/01/19 08:51:31;;;;;;;32.50;9.33;;;;;;;15.40;36.36;91854.34;5089986;28;20220;-78
2023/01/19 08:53:56;;;;;;;27.03;10.87;;;;;;;15.33;36.18;91839.06;5091152;28;20232;-77
2023/01/19 08:56:21;;;;;;;32.77;11.43;;;;;;;15.35;36.59;91852.66;5089638;28;20168;-80
2023/01/19 08:58:47;;;;;;;25.90;10.10;;;;;;;15.27;37.83;91847.50;5089762;28;20212;-78
2023/01/19 09:01:17;;;;;;;19.63;10.33;;;;;;;15.24;37.20;91829.72;5089301;28;20240;-78
2023/01/19 09:03:42;;;;;;;18.03;9.13;;;;;;;14.99;36.23;91788.72;5088772;28;20180;-79
2023/01/19 09:06:09;;;;;;;25.93;9.87;;;;;;;15.37;36.44;91834.72;5089416;28;20250;-78
2023/01/19 09:08:35;;;;;;;23.60;8.60;;;;;;;15.52;36.04;91835.94;5122795;28;20256;-77
2023/01/19 09:11:00;;;;;;;32.80;10.23;;;;;;;15.34;36.52;91781.97;5088729;28;20208;-79
2023/01/19 09:13:26;;;;;;;18.43;9.13;;;;;;;15.52;36.02;91812.28;5088906;28;20184;-78
2023/01/19 09:15:52;;;;;;;20.57;10.57;;;;;;;15.51;35.65;91829.16;5088516;28;20228;-77
2023/01/19 09:18:21;;;;;;;22.33;8.90;;;;;;;15.51;36.25;91821.28;5088755;28;20215;-79
2023/01/19 09:20:48;;;;;;;24.87;9.60;;;;;;;15.46;36.64;91810.94;5088790;28;20224;-81
2023/01/19 09:23:16;;;;;;;24.03;9.97;;;;;;;15.26;35.75;91788.09;5088773;28;20268;-76
2023/01/19 09:25:44;;;;;;;25.93;10.27;;;;;;;15.42;36.18;91815.34;5087360;28;20299;-75
2023/01/19 09:28:13;;;;;;;14.63;8.80;;;;;;;15.45;36.70;91802.31;5088079;28;20214;-76
2023/01/19 09:30:40;;;;;;;15.87;8.60;;;;;;;15.34;36.21;91792.50;5087952;28;20216;-77
2023/01/19 09:33:09;;;;;;;20.70;10.03;;;;;;;15.46;37.01;91803.06;5089148;28;20176;-79
2023/01/19 09:35:39;;;;;;;28.03;9.97;;;;;;;15.38;36.63;91806.56;5086870;28;20971;-80
2023/01/19 09:38:09;;;;;;;19.57;9.80;;;;;;;15.34;36.88;91789.88;5109427;28;20222;-82
2023/01/19 09:40:39;;;;;;;12.80;8.80;;;;;;;15.42;37.05;91783.78;5124972;28;20212;-74
2023/01/19 09:43:15;;;;;;;17.53;9.00;;;;;;;15.41;36.92;91796.16;5092079;28;20188;-77
2023/01/19 09:45:51;;;;;;;26.93;9.60;;;;;;;15.47;37.38;91794.09;5091731;28;20246;-81
2023/01/19 09:48:29;;;;;;;21.57;9.63;;;;;;;15.56;37.84;91811.31;5091461;28;20177;-78
2023/01/19 09:50:59;;;;;;;18.90;9.43;;;;;;;15.53;36.95;91798.78;5093138;28;20216;-84
2023/01/19 09:53:54;;;;;;;11.00;8.87;;;;;;;15.63;36.70;91800.22;5091945;28;20184;-76
2023/01/19 09:56:21;;;;;;;16.33;8.67;;;;;;;15.60;36.22;91785.88;5071445;28;20221;-83
2023/01/19 09:58:49;;;;;;;24.60;9.07;;;;;;;15.70;36.95;91800.47;5073343;28;20213;-84
2023/01/19 10:01:24;;;;;;;16.77;8.47;;;;;;;15.64;36.01;91786.00;5071600;28;20261;-78
2023/01/19 10:03:56;;;;;;;28.13;9.17;;;;;;;15.55;36.58;91795.84;5069801;28;20204;-75
2023/01/19 10:06:22;;;;;;;16.40;9.17;;;;;;;15.63;36.40;91773.91;5090361;28;20203;-79
2023/01/19 10:09:23;;;;;;;18.20;9.13;;;;;;;15.63;35.81;91752.88;5091992;28;20209;-79
2023/01/19 10:12:01;;;;;;;21.73;8.50;;;;;;;15.60;37.08;91782.47;5069399;28;20208;-82
2023/01/19 10:14:43;;;;;;;12.23;9.00;;;;;;;15.70;36.91;91798.59;5066055;28;20236;-84
2023/01/19 10:17:18;;;;;;;22.90;9.97;;;;;;;15.57;38.02;91775.22;5073336;28;20196;-84
2023/01/19 10:19:48;;;;;;;16.50;9.37;;;;;;;15.43;37.36;91772.16;5103092;28;20337;-80
2023/01/19 10:22:25;;;;;;;14.70;9.47;;;;;;;15.36;36.65;91754.25;5071293;28;20240;-81
2023/01/19 10:24:57;;;;;;;21.30;9.57;;;;;;;15.52;37.21;91757.03;5078525;28;20227;-76
2023/01/19 10:27:28;;;;;;;17.40;8.83;;;;;;;15.56;37.64;91774.50;5092849;28;20246;-77
2023/01/19 10:29:54;;;;;;;16.90;9.57;;;;;;;15.61;36.48;91771.63;5091901;28;20232;-80
2023/01/19 10:32:23;;;;;;;20.03;8.83;;;;;;;15.46;37.82;91766.25;5091352;28;20200;-80
2023/01/19 10:34:49;;;;;;;16.80;9.30;;;;;;;15.21;37.49;91769.91;5090546;28;20244;-79
2023/01/19 10:37:23;;;;;;;11.77;8.73;;;;;;;15.23;37.67;91771.13;5091003;28;20204;-79
2023/01/19 10:40:25;;;;;;;16.40;9.20;;;;;;;15.16;37.20;91767.50;5090373;28;20240;-78
2023/01/19 10:42:51;;;;;;;12.00;8.37;;;;;;;14.97;37.68;91746.22;5088896;28;20199;-81
2023/01/19 10:45:22;;;;;;;18.10;7.83;;;;;;;15.17;37.16;91750.63;5090559;28;20228;-81
2023/01/19 10:47:49;;;;;;;22.73;9.37;;;;;;;15.31;39.18;91809.72;5089709;28;20260;-78
2023/01/19 10:50:38;;;;;;;14.63;8.83;;;;;;;15.19;37.27;91764.22;5089797;28;20219;-75
2023/01/19 10:53:05;;;;;;;13.13;8.73;;;;;;;15.28;38.32;91778.03;5091152;28;20189;-75
2023/01/19 10:55:33;;;;;;;15.47;8.47;;;;;;;15.27;37.75;91766.00;5090595;28;20317;-75
2023/01/19 10:57:59;;;;;;;13.10;9.37;;;;;;;15.19;38.96;91743.94;5091382;28;20207;-75
2023/01/19 11:00:37;;;;;;;11.37;8.30;;;;;;;14.78;41.17;91777.47;5089510;28;20224;-81
2023/01/19 11:03:21;;;;;;;16.37;9.20;;;;;;;14.89;40.15;91763.59;5090253;28;20231;-81
2023/01/19 11:05:47;;;;;;;10.90;9.33;;;;;;;14.94;39.50;91731.84;5122725;28;20245;-82
2023/01/19 11:08:31;;;;;;;14.47;9.90;;;;;;;15.02;39.23;91727.59;5091028;28;20294;-85
2023/01/19 11:11:03;;;;;;;15.10;8.80;;;;;;;15.19;39.42;91748.44;5089330;28;20235;-86
2023/01/19 11:13:28;;;;;;;15.53;8.97;;;;;;;15.33;38.83;91738.38;5091263;28;20173;-83
2023/01/19 11:15:57;;;;;;;19.07;9.80;;;;;;;15.65;38.53;91727.00;5105656;28;20228;-84
2023/01/19 11:18:31;;;;;;;10.27;8.43;;;;;;;15.70;37.94;91721.53;5091368;28;20201;-85
2023/01/19 11:21:01;;;;;;;12.27;8.43;;;;;;;15.85;37.78;91720.84;5089831;28;20240;-86
2023/01/19 11:23:33;;;;;;;13.07;10.47;;;;;;;15.85;37.02;91729.50;5124052;27;20177;-85
2023/01/19 11:26:01;;;;;;;15.53;9.37;;;;;;;15.89;37.14;91735.63;5089194;28;20235;-82
2023/01/19 11:28:40;;;;;;;13.67;9.47;;;;;;;15.89;37.75;91737.50;5090189;28;20261;-83
2023/01/19 11:31:14;;;;;;;13.47;8.50;;;;;;;15.79;37.47;91735.31;5089796;28;20985;-85
2023/01/19 11:33:51;;;;;;;13.93;9.63;;;;;;;15.77;37.42;91737.50;5091051;28;20210;-84